createdAt,value
2022-09-15T00:04:34.522Z,97.92
2022-09-15T00:09:35.930Z,96.18
2022-09-15T00:14:37.180Z,95.11
2022-09-15T00:19:39.053Z,96.08
2022-09-15T00:24:41.469Z,95.13
2022-09-15T00:29:43.172Z,96.67
2022-09-15T00:34:44.582Z,97.76
2022-09-15T00:39:45.839Z,95.55
2022-09-15T00:44:49.951Z,92.98
2022-09-15T00:49:59.012Z,94.45
2022-09-15T00:55:03.747Z,95.29
2022-09-15T01:00:11.113Z,96.05
2022-09-15T01:05:15.388Z,93.83
2022-09-15T01:10:27.774Z,94.92
2022-09-15T01:16:01.531Z,93.89
2022-09-15T01:21:24.672Z,94.36
2022-09-15T01:26:44.109Z,93.82
2022-09-15T01:32:13.123Z,92.03
2022-09-15T01:37:20.928Z,91.76
2022-09-15T01:42:24.905Z,90.83
2022-09-15T01:47:29.788Z,91.13
2022-09-15T01:52:32.256Z,92.66
2022-09-15T01:57:33.736Z,91.00
2022-09-15T02:02:42.539Z,92.09
2022-09-15T02:07:48.918Z,92.13
2022-09-15T02:12:59.841Z,91.63
2022-09-15T02:18:03.776Z,90.99
2022-09-15T02:23:11.377Z,91.93
2022-09-15T02:28:15.993Z,94.26
2022-09-15T02:33:20.950Z,92.61
2022-09-15T02:38:23.002Z,92.09
2022-09-15T02:43:24.405Z,91.95
2022-09-15T02:48:25.752Z,92.64
2022-09-15T02:53:27.111Z,91.42
2022-09-15T02:58:28.733Z,92.57
2022-09-15T03:03:31.977Z,92.75
2022-09-15T03:08:33.472Z,93.98
2022-09-15T03:13:34.794Z,93.54
2022-09-15T03:18:36.838Z,93.74
2022-09-15T03:23:38.226Z,93.09
2022-09-15T03:28:39.850Z,92.48
2022-09-15T03:33:41.263Z,93.82
2022-09-15T03:38:42.532Z,93.17
2022-09-15T03:43:43.853Z,93.83
2022-09-15T03:48:45.401Z,92.54
2022-09-15T03:53:46.754Z,93.00
2022-09-15T03:58:48.011Z,91.22
2022-09-15T04:03:51.359Z,92.34
2022-09-15T04:08:54.201Z,92.68
2022-09-15T04:13:56.221Z,93.02
2022-09-15T04:18:57.915Z,93.24
2022-09-15T04:23:59.371Z,93.10
2022-09-15T04:29:04.600Z,92.71
2022-09-15T04:34:06.407Z,92.79
2022-09-15T04:39:07.650Z,92.97
2022-09-15T04:44:09.111Z,94.63
2022-09-15T04:49:10.366Z,93.35
2022-09-15T04:54:11.713Z,95.34
2022-09-15T04:59:14.682Z,93.30
2022-09-15T05:04:16.052Z,93.15
2022-09-15T05:09:17.359Z,93.57
2022-09-15T05:14:18.828Z,92.67
2022-09-15T05:19:20.270Z,94.61
2022-09-15T05:24:21.791Z,93.91
2022-09-15T05:29:23.203Z,94.15
2022-09-15T05:34:24.461Z,93.69
2022-09-15T05:39:25.795Z,93.14
2022-09-15T05:44:27.108Z,93.23
2022-09-15T05:49:29.421Z,93.52
2022-09-15T05:54:30.763Z,93.56
2022-09-15T05:59:33.248Z,93.43
2022-09-15T06:04:34.746Z,94.18
2022-09-15T06:09:36.120Z,93.19
2022-09-15T06:14:37.437Z,94.65
2022-09-15T06:19:38.862Z,92.92
2022-09-15T06:24:40.257Z,94.03
2022-09-15T06:29:41.600Z,93.96
2022-09-15T06:34:42.897Z,93.45
2022-09-15T06:39:44.569Z,93.98
2022-09-15T06:44:45.905Z,93.83
2022-09-15T06:49:47.184Z,93.46
2022-09-15T06:54:49.773Z,93.73
2022-09-15T06:59:51.225Z,93.78
2022-09-15T07:04:52.567Z,92.64
2022-09-15T07:09:53.804Z,93.04
2022-09-15T07:14:55.171Z,93.16
2022-09-15T07:19:56.581Z,94.32
2022-09-15T07:24:57.915Z,93.32
2022-09-15T07:29:59.166Z,92.60
2022-09-15T07:35:01.719Z,93.71
2022-09-15T07:40:03.568Z,93.64
2022-09-15T07:45:05.491Z,92.46
2022-09-15T07:50:07.242Z,91.75
2022-09-15T07:55:09.416Z,92.50
2022-09-15T08:00:11.477Z,91.94
2022-09-15T08:05:12.835Z,92.91
2022-09-15T08:10:14.283Z,93.78
2022-09-15T08:15:15.636Z,92.30
2022-09-15T08:20:17.330Z,91.98
2022-09-15T08:25:18.746Z,91.68
2022-09-15T08:30:21.219Z,91.58
2022-09-15T08:35:23.364Z,91.75
2022-09-15T08:40:36.720Z,91.38
2022-09-15T08:45:53.163Z,90.38
2022-09-15T08:50:57.988Z,89.69
2022-09-15T08:56:05.434Z,90.24
2022-09-15T09:01:21.747Z,90.02
2022-09-15T09:06:58.366Z,90.25
2022-09-15T09:12:27.413Z,88.98
2022-09-15T09:17:46.729Z,88.89
2022-09-15T09:22:52.194Z,87.46
2022-09-15T09:27:54.218Z,83.39
2022-09-15T09:33:23.945Z,86.03
2022-09-15T09:38:36.458Z,83.29
2022-09-15T09:43:38.233Z,87.02
2022-09-15T09:48:43.220Z,86.44
2022-09-15T09:53:53.377Z,85.11
2022-09-15T09:58:54.897Z,85.30
2022-09-15T10:04:19.568Z,85.00
2022-09-15T10:09:20.977Z,85.58
2022-09-15T10:14:38.410Z,85.21
2022-09-15T10:19:42.534Z,84.68
2022-09-15T10:24:44.335Z,83.92
2022-09-15T10:29:46.149Z,81.15
2022-09-15T10:34:48.800Z,83.92
2022-09-15T10:39:55.743Z,82.13
2022-09-15T10:45:09.581Z,82.66
2022-09-15T10:50:26.805Z,81.50
2022-09-15T10:55:52.199Z,79.75
2022-09-15T11:01:18.797Z,83.01
2022-09-15T11:06:26.538Z,83.60
2022-09-15T11:11:36.216Z,85.66
2022-09-15T11:17:12.314Z,86.52
2022-09-15T11:22:39.050Z,85.42
2022-09-15T11:27:50.871Z,84.87
2022-09-15T11:33:20.394Z,85.14
2022-09-15T11:38:30.637Z,84.83
2022-09-15T11:43:46.012Z,85.07
2022-09-15T11:48:57.292Z,83.54
2022-09-15T11:54:04.921Z,83.91
2022-09-15T11:59:17.189Z,83.22
2022-09-15T12:04:41.826Z,83.37
2022-09-15T12:09:43.295Z,83.24
2022-09-15T12:14:46.610Z,82.23
2022-09-15T12:20:14.162Z,83.53
2022-09-15T12:25:26.585Z,84.05
2022-09-15T12:30:41.533Z,84.19
2022-09-15T12:35:42.867Z,84.23
2022-09-15T12:40:44.285Z,84.23
2022-09-15T12:46:01.759Z,84.43
2022-09-15T12:51:05.606Z,84.71
2022-09-15T12:56:11.550Z,82.84
2022-09-15T13:01:19.407Z,82.95
2022-09-15T13:06:25.202Z,82.22
2022-09-15T13:11:50.125Z,81.26
2022-09-15T13:16:54.764Z,80.75
2022-09-15T13:22:11.358Z,81.38
2022-09-15T13:27:16.469Z,80.73
2022-09-15T13:32:33.066Z,81.39
2022-09-15T13:38:08.170Z,79.33
2022-09-15T13:43:10.989Z,79.08
2022-09-15T13:48:27.414Z,80.21
2022-09-15T13:53:47.432Z,77.41
2022-09-15T13:59:01.715Z,79.33
2022-09-15T14:04:17.492Z,78.87
2022-09-15T14:09:20.202Z,77.52
2022-09-15T14:14:27.354Z,77.50
2022-09-15T14:19:33.279Z,77.47
2022-09-15T14:24:40.068Z,77.64
2022-09-15T14:29:43.229Z,77.70
2022-09-15T14:34:45.634Z,76.54
2022-09-15T14:39:57.364Z,75.56
2022-09-15T14:50:33.796Z,75.95
2022-09-15T14:55:45.037Z,75.92
2022-09-15T15:00:57.403Z,75.81
2022-09-15T15:06:27.684Z,76.63
2022-09-15T15:11:27.840Z,75.36
2022-09-15T15:16:31.122Z,75.42
2022-09-15T15:21:43.834Z,77.08
2022-09-15T15:26:50.240Z,74.74
2022-09-15T15:31:51.874Z,74.83
2022-09-15T15:37:02.557Z,74.76
2022-09-15T15:42:08.443Z,74.15
2022-09-15T15:47:12.774Z,74.82
2022-09-15T15:52:14.162Z,75.40
2022-09-15T15:57:28.080Z,75.21
2022-09-15T16:02:30.314Z,74.80
2022-09-15T16:07:33.495Z,73.70
2022-09-15T16:12:35.549Z,72.30
2022-09-15T16:17:37.037Z,72.52
2022-09-15T16:22:40.522Z,71.59
2022-09-15T16:27:41.967Z,69.82
2022-09-15T16:32:43.420Z,70.85
2022-09-15T16:37:44.830Z,71.05
2022-09-15T16:42:47.702Z,69.73
2022-09-15T16:47:49.120Z,70.99
2022-09-15T16:52:51.631Z,70.60
2022-09-15T16:57:53.041Z,71.52
2022-09-15T17:02:54.420Z,70.42
2022-09-15T17:07:55.885Z,71.25
2022-09-15T17:12:57.591Z,70.90
2022-09-15T17:17:59.032Z,70.72
2022-09-15T17:23:01.701Z,70.06
2022-09-15T17:28:03.140Z,70.08
2022-09-15T17:33:12.071Z,70.48
2022-09-15T17:38:14.557Z,72.20
2022-09-15T17:43:19.558Z,71.84
2022-09-15T17:48:22.447Z,72.02
2022-09-15T17:53:28.145Z,72.03
2022-09-15T17:58:31.304Z,71.63
2022-09-15T18:03:35.205Z,71.54
2022-09-15T18:08:36.765Z,72.59
2022-09-15T18:13:38.193Z,72.03
2022-09-15T18:18:41.092Z,72.95
2022-09-15T18:23:42.553Z,73.71
2022-09-15T18:28:44.154Z,73.22
2022-09-15T18:33:45.668Z,73.88
2022-09-15T18:38:47.087Z,73.44
2022-09-15T18:43:51.609Z,73.71
2022-09-15T18:48:53.041Z,73.83
2022-09-15T18:53:54.717Z,73.76
2022-09-15T18:58:56.195Z,74.15
2022-09-15T19:03:57.875Z,74.38
2022-09-15T19:08:59.369Z,74.20
2022-09-15T19:14:00.916Z,74.64
2022-09-15T19:19:02.446Z,74.26
2022-09-15T19:24:04.044Z,75.04
2022-09-15T19:29:06.476Z,74.68
2022-09-15T19:34:08.102Z,74.53
2022-09-15T19:39:12.073Z,75.48
2022-09-15T19:44:13.517Z,75.40
2022-09-15T19:49:15.248Z,75.14
2022-09-15T19:54:16.709Z,75.20
2022-09-15T19:59:19.608Z,75.69
2022-09-15T20:04:21.071Z,75.66
2022-09-15T20:09:22.703Z,76.15
2022-09-15T20:14:24.313Z,77.05
2022-09-15T20:19:25.777Z,76.86
2022-09-15T20:24:27.141Z,76.75
2022-09-15T20:29:28.736Z,76.84
2022-09-15T20:34:30.225Z,77.47
2022-09-15T20:39:31.603Z,76.97
2022-09-15T20:44:33.000Z,77.13
2022-09-15T20:49:34.419Z,77.44
2022-09-15T20:54:35.805Z,77.90
2022-09-15T20:59:37.294Z,77.65
2022-09-15T21:04:38.711Z,78.12
2022-09-15T21:09:40.113Z,77.65
2022-09-15T21:14:41.497Z,78.17
2022-09-15T21:19:43.083Z,77.86
2022-09-15T21:24:44.586Z,78.41
2022-09-15T21:29:46.171Z,78.50
2022-09-15T21:34:47.555Z,78.01
2022-09-15T21:39:48.922Z,78.21
2022-09-15T21:44:50.848Z,78.47
2022-09-15T21:49:52.252Z,78.73
2022-09-15T21:55:41.402Z,78.14
2022-09-15T22:00:42.836Z,78.09
2022-09-15T22:05:46.142Z,78.63
2022-09-15T22:10:47.473Z,78.42
2022-09-15T22:15:48.718Z,79.05
2022-09-15T22:20:50.321Z,78.97
2022-09-15T22:25:51.664Z,78.45
2022-09-15T22:30:56.471Z,78.69
2022-09-15T22:35:57.977Z,78.72
2022-09-15T22:41:14.455Z,78.69
2022-09-15T22:46:17.849Z,79.10
2022-09-15T22:51:19.250Z,79.08
2022-09-15T22:56:20.740Z,78.96
2022-09-15T23:01:27.903Z,79.77
2022-09-15T23:06:32.003Z,79.11
2022-09-15T23:11:34.176Z,79.43
2022-09-15T23:16:35.852Z,80.79
2022-09-15T23:21:37.243Z,79.91
2022-09-15T23:26:38.721Z,80.82
2022-09-15T23:31:40.214Z,80.50
2022-09-15T23:36:41.687Z,81.15
2022-09-15T23:41:43.449Z,80.76
2022-09-15T23:46:44.907Z,80.81
2022-09-15T23:51:46.267Z,81.12
2022-09-15T23:56:47.618Z,81.49
